Historyczne dane pomiarowe

Dodano dane terminowe – wersja testowa.

Dane z okresu 1951-2019

Wersja bazy: 1.34 [2019-03-16, lista zmian], aktualizacja planowana na 2019-04-15

Dane meteo z obszaru Polski uzyskane na podstawie danych udostępnionych przez Instytut Meteorologii i Gospodarki Wodnej – Państwowy Instytut Badawczy.

 

Wybierz Datę:    

       

TemperaturaWilgotnośćZachmurzenieWiatrCiśnienieWidzialnośćZjawiska
 Data    tng td wb rh cc ccl cl cm ch dir g1 g2 mslp ppp      
1999-08-04 00:00:00 19.3--- 6.7 12.544wxwxwx1wx--1016.0 993.4 0.0---wx
1999-08-04 01:00:00 18.5--- 7.3 12.448wxwx2wx--1015.9 993.3----wx
1999-08-04 02:00:00 17.8--- 7.5 12.251wxwx2wx--1016.0 993.3----wx
1999-08-04 03:00:00 17.3--- 7.5 12.053wxwx2wx--1016.0 993.3----wx
1999-08-04 04:00:00 15.9--- 7.3 11.357wxwxwx2wx--1016.3 993.5----wx
1999-08-04 05:00:00 17.4--- 8.3 12.455wxwxwx2wx--1016.2 993.5----wx
1999-08-04 06:00:00 21.7--- 7.9 14.041wxwx1wx--1015.8 993.4 0.0---wx
1999-08-04 07:00:00 23.1--- 8.3 14.739wxwx1wx--1015.8 993.5----wx
1999-08-04 08:00:00 24.6--- 9.7 15.939wxwx1wx--1015.8 993.6----wx
1999-08-04 09:00:00 25.9--- 8.3 15.833wxwxwx2wx--1015.6 993.5----wx
1999-08-04 10:00:00 25.7--- 8.8 15.934wxwxwx3wx--1015.4 993.3----wx
1999-08-04 11:00:00 27.2--- 6.8 15.727wxwxwx2wx--1015.0 993.0----wx
1999-08-04 12:00:00 27.3--- 6.4 15.627wxwxwx2wx--1014.6 992.7 0.0---wx
1999-08-04 13:00:00 26.5--- 7.0 15.529wxwxwx3wx--1014.5 992.5----wx
1999-08-04 14:00:00 27.0--- 6.7 15.628wxwxwx2wx--1014.1 992.1----wx
1999-08-04 15:00:00 27.6--- 7.7 16.229wxwxwx2wx--1013.9 992.0----wx
1999-08-04 16:00:00 25.9--- 8.1 15.732wxwxwx1wx--1013.6 991.6----wx
1999-08-04 17:00:00 26.1--- 7.6 15.631wxwxwx1wx--1013.5 991.5----wx
1999-08-04 18:00:00 24.7--- 8.5 15.436wxwxwx1wx--1013.6 991.5 0.0---wx
1999-08-04 19:00:00 22.5--- 7.9 14.339wxwxwx2wx--1013.9 991.6----wx
1999-08-04 20:00:00 21.8--- 7.4 13.839wxwxwx2wx--1014.1 991.8----wx
1999-08-04 21:00:00 21.2--- 7.7 13.742wxwx2wx--1014.3 991.9----wx
1999-08-04 22:00:00 21.2--- 7.5 13.641wxwx1wx--1014.6 992.2----wx
1999-08-04 23:00:00 20.8--- 7.4 13.442wxwx1wx--1014.7 992.3----wx

 

Źródłem pochodzenia danych jest Instytut Meteorologii i Gospodarki Wodnej – Państwowy Instytut Badawczy. Dane Instytutu Meteorologii i Gospodarki Wodnej – Państwowego Instytutu Badawczego zostały przetworzone.

Dane źródłowe można odnaleźć na stronie https://dane.imgw.pl